Terminal Aerodrome Forecast
Issued by NWS Cleveland, OH

Home | Current Version | Previous Version | Text Only | Print | Product List | Glossary On
Versions: 1 2 3 4 5 6 7 8 9 10 11 12 13 14 15 16 17 18 19 20
585
FTUS41 KCLE 172217 AAA
TAFYNG
TAF AMD
KYNG 172217Z 1722/1818 15006KT P6SM VCSH SCT040 OVC080
      TEMPO 1722/1801 6SM -RA BR BKN040
     FM180200 21006KT 5SM BR VCSH OVC015
     FM180900 21007KT 4SM BR OVC008=

USA.gov is the U.S. government's official web portal to all federal, state and local government web resources and services.